createdAt,value
2019-03-20T00:05:56.049Z,29.87
2019-03-20T00:16:00.958Z,27.57
2019-03-20T00:26:06.038Z,23.33
2019-03-20T00:36:11.052Z,24.03
2019-03-20T00:46:15.923Z,26.77
2019-03-20T00:56:20.812Z,25.73
2019-03-20T01:06:25.719Z,28.57
2019-03-20T01:16:30.598Z,28.90
2019-03-20T01:26:35.489Z,26.57
2019-03-20T01:36:40.503Z,27.00
2019-03-20T01:46:45.444Z,26.27
2019-03-20T01:56:50.463Z,19.00
2019-03-20T02:06:55.358Z,25.40
2019-03-20T02:17:00.243Z,22.43
2019-03-20T02:27:05.550Z,32.15
2019-03-20T02:37:11.576Z,25.00
2019-03-20T02:47:16.581Z,28.92
2019-03-20T02:57:21.653Z,35.37
2019-03-20T03:07:26.655Z,28.03
2019-03-20T03:17:31.543Z,34.23
2019-03-20T03:27:36.647Z,32.53
2019-03-20T03:37:41.767Z,39.93
2019-03-20T03:47:47.357Z,31.13
2019-03-20T03:57:53.367Z,33.25
2019-03-20T04:07:59.394Z,21.17
2019-03-20T04:18:05.256Z,30.32
2019-03-20T04:28:10.324Z,36.23
2019-03-20T04:38:15.282Z,32.70
2019-03-20T04:48:20.366Z,30.90
2019-03-20T04:58:25.366Z,32.77
2019-03-20T05:08:30.377Z,28.63
2019-03-20T05:18:35.358Z,31.23
2019-03-20T05:28:40.465Z,30.23
2019-03-20T05:38:45.454Z,27.30
2019-03-20T05:48:52.079Z,30.60
2019-03-20T05:58:57.070Z,25.57
2019-03-20T06:09:02.064Z,19.57
2019-03-20T06:19:07.169Z,18.67
2019-03-20T06:29:12.091Z,21.00
2019-03-20T06:39:17.153Z,23.55
2019-03-20T06:49:22.147Z,24.23
2019-03-20T06:59:32.973Z,24.17
2019-03-20T07:09:43.709Z,24.00
2019-03-20T07:19:49.714Z,21.33
2019-03-20T07:29:54.609Z,20.37
2019-03-20T07:39:59.585Z,19.73
2019-03-20T07:50:07.395Z,18.50
2019-03-20T08:00:14.157Z,16.97
2019-03-20T08:10:20.448Z,10.57
2019-03-20T08:20:28.740Z,11.93
2019-03-20T08:30:33.685Z,6.60
2019-03-20T08:40:38.675Z,7.12
2019-03-20T08:50:43.693Z,6.35
2019-03-20T09:00:48.782Z,5.53
2019-03-20T09:10:56.843Z,5.28
2019-03-20T09:21:01.819Z,7.70
2019-03-20T09:31:06.753Z,4.53
2019-03-20T09:41:11.710Z,6.80
2019-03-20T09:51:16.718Z,3.62
2019-03-20T10:01:21.692Z,3.67
2019-03-20T10:11:26.715Z,7.12
2019-03-20T10:21:31.638Z,4.17
2019-03-20T10:31:36.886Z,4.20
2019-03-20T10:41:42.116Z,4.50
2019-03-20T10:51:47.303Z,4.70
2019-03-20T11:01:52.375Z,3.87
2019-03-20T11:11:57.394Z,3.70
2019-03-20T11:22:02.372Z,6.03
2019-03-20T11:32:07.477Z,14.03
2019-03-20T11:42:12.464Z,3.05
2019-03-20T11:52:17.454Z,3.70
2019-03-20T12:02:28.117Z,4.53
2019-03-20T12:12:29.278Z,8.55
2019-03-20T12:22:34.391Z,15.83
2019-03-20T12:32:39.561Z,6.65
2019-03-20T12:42:45.586Z,14.47
2019-03-20T12:52:50.604Z,6.58
2019-03-20T13:02:56.704Z,5.22
2019-03-20T13:13:01.734Z,4.00
2019-03-20T13:23:16.025Z,5.53
2019-03-20T13:33:25.575Z,6.30
2019-03-20T13:43:27.751Z,3.50
2019-03-20T13:53:35.315Z,5.60
2019-03-20T14:03:41.009Z,2.62
2019-03-20T14:13:46.091Z,2.95
2019-03-20T14:23:51.078Z,3.20
2019-03-20T14:33:57.111Z,3.30
2019-03-20T14:44:07.992Z,7.23
2019-03-20T14:54:16.338Z,6.40
2019-03-20T15:04:21.845Z,2.70
2019-03-20T15:14:30.774Z,7.77
2019-03-20T15:24:37.932Z,3.27
2019-03-20T15:34:44.090Z,3.47
2019-03-20T15:44:49.266Z,5.33
2019-03-20T15:54:55.535Z,4.00
2019-03-20T16:05:00.608Z,4.37
2019-03-20T16:15:09.005Z,3.57
2019-03-20T16:25:15.995Z,3.70
2019-03-20T16:35:21.511Z,3.80
2019-03-20T16:45:28.475Z,4.90
2019-03-20T16:55:33.852Z,5.90
2019-03-20T17:05:39.247Z,38.63
2019-03-20T17:15:45.145Z,24.87
2019-03-20T17:25:50.414Z,17.75
2019-03-20T17:35:55.614Z,22.27
2019-03-20T17:46:00.901Z,26.43
2019-03-20T17:56:06.245Z,19.37
2019-03-20T18:06:11.316Z,19.30
2019-03-20T18:16:16.754Z,32.33
2019-03-20T18:26:21.969Z,17.37
2019-03-20T18:36:27.308Z,36.23
2019-03-20T18:46:33.294Z,25.47
2019-03-20T18:56:38.451Z,37.67
2019-03-20T19:06:45.822Z,35.77
2019-03-20T19:16:51.282Z,47.83
2019-03-20T19:26:56.523Z,48.23
2019-03-20T19:37:01.911Z,27.03
2019-03-20T19:47:07.447Z,21.77
2019-03-20T19:57:12.856Z,14.03
2019-03-20T20:07:18.219Z,21.23
2019-03-20T20:17:24.160Z,22.10
2019-03-20T20:27:30.081Z,22.90
2019-03-20T20:37:35.399Z,22.40
2019-03-20T20:47:42.428Z,45.23
2019-03-20T20:57:47.552Z,42.73
2019-03-20T21:07:52.847Z,31.77
2019-03-20T21:18:15.805Z,25.43
2019-03-20T21:28:52.581Z,20.12
2019-03-20T21:38:59.070Z,22.80
2019-03-20T21:49:05.158Z,20.27
2019-03-20T21:59:39.183Z,16.90
2019-03-20T22:09:55.929Z,15.85
2019-03-20T22:20:09.833Z,16.13
2019-03-20T22:30:14.820Z,15.67
2019-03-20T22:40:28.724Z,16.42
2019-03-20T22:50:45.275Z,15.57
2019-03-20T23:00:55.828Z,15.30
2019-03-20T23:11:02.652Z,13.83
2019-03-20T23:21:08.971Z,15.90
2019-03-20T23:31:15.148Z,13.10
2019-03-20T23:41:20.416Z,10.87
2019-03-20T23:51:31.017Z,12.70
